Time;durP1;ratioP1;P1;durP2;ratioP2;P2;SDS_P1;SDS_P2;PMS_P1;PMS_P2;Temp;Humidity;BMP_temperature;BMP_pressure;BME280_temperature;BME280_humidity;BME280_pressure;Samples;Min_cycle;Max_cycle;Signal;HPM_P1;HPM_P2
2022/06/04 00:00:35;;;;;;;5.68;3.90;;;;;;;15.83;100.00;91458.75;5013924;28;20026;-65
2022/06/04 00:03:01;;;;;;;5.75;4.07;;;;;;;15.78;100.00;91456.28;5031858;28;20037;-65
2022/06/04 00:05:29;;;;;;;4.70;3.25;;;;;;;15.78;100.00;91450.09;5031769;28;20025;-65
2022/06/04 00:07:57;;;;;;;5.35;4.00;;;;;;;15.67;100.00;91438.97;5031746;28;20033;-65
2022/06/04 00:15:59;;;;;;;4.15;3.35;;;;;;;15.28;100.00;91443.59;5031773;28;20087;-66
2022/06/04 00:18:24;;;;;;;5.78;3.33;;;;;;;15.22;100.00;91442.22;5031758;28;20040;-65
2022/06/04 00:20:52;;;;;;;5.50;3.45;;;;;;;15.24;100.00;91441.91;5031389;28;20018;-65
2022/06/04 00:23:18;;;;;;;4.68;3.17;;;;;;;15.24;100.00;91437.31;5031655;28;20060;-65
2022/06/04 00:25:47;;;;;;;4.30;3.38;;;;;;;15.39;100.00;91437.88;5031606;28;20025;-65
2022/06/04 00:28:14;;;;;;;4.93;3.30;;;;;;;15.49;100.00;91427.56;5031584;28;20507;-66
2022/06/04 00:30:40;;;;;;;5.45;3.35;;;;;;;15.56;100.00;91427.03;5031375;28;20057;-65
2022/06/04 00:33:06;;;;;;;5.93;3.60;;;;;;;15.56;100.00;91422.44;5031513;28;20067;-65
2022/06/04 00:35:33;;;;;;;4.10;3.22;;;;;;;15.68;100.00;91424.47;5031485;28;20125;-66
2022/06/04 00:37:59;;;;;;;3.70;3.17;;;;;;;15.78;100.00;91432.13;5031719;28;20458;-65
2022/06/04 00:40:53;;;;;;;4.70;3.40;;;;;;;15.76;100.00;91439.69;5031262;28;20476;-65
2022/06/04 00:43:20;;;;;;;5.72;3.65;;;;;;;15.64;100.00;91428.91;5031389;28;20530;-65
2022/06/04 00:46:13;;;;;;;4.50;3.50;;;;;;;15.58;100.00;91430.16;5031292;28;20025;-65
2022/06/04 00:48:39;;;;;;;6.18;3.83;;;;;;;15.53;100.00;91430.38;5031295;28;20105;-64
2022/06/04 00:51:06;;;;;;;4.60;3.33;;;;;;;15.42;100.00;91426.50;5031086;28;20522;-64
2022/06/04 00:53:33;;;;;;;4.47;4.00;;;;;;;15.37;100.00;91419.44;5031250;28;20108;-64
2022/06/04 00:56:23;;;;;;;5.07;3.88;;;;;;;15.26;100.00;91424.38;5031172;28;20170;-64
2022/06/04 00:59:04;;;;;;;5.32;3.53;;;;;;;15.23;100.00;91425.03;5031076;28;20117;-65
2022/06/04 01:01:35;;;;;;;8.75;4.50;;;;;;;15.15;100.00;91417.84;5030939;28;20033;-65
2022/06/04 01:04:47;;;;;;;5.57;3.72;;;;;;;15.11;100.00;91421.47;5031057;28;20503;-65
2022/06/04 01:07:14;;;;;;;6.28;4.15;;;;;;;15.15;100.00;91417.84;5030807;28;20041;-64
2022/06/04 01:09:54;;;;;;;5.53;3.70;;;;;;;15.06;100.00;91417.09;5032113;28;20038;-65
2022/06/04 01:13:12;;;;;;;5.63;3.90;;;;;;;15.03;100.00;91415.06;5035098;28;20030;-64
2022/06/04 01:15:40;;;;;;;5.93;4.25;;;;;;;15.00;100.00;91410.34;4989233;28;20503;-65
2022/06/04 01:18:30;;;;;;;7.15;3.80;;;;;;;14.96;100.00;91404.06;5035142;28;20124;-65
2022/06/04 01:21:11;;;;;;;6.30;3.75;;;;;;;14.87;100.00;91395.28;5034797;28;20079;-65
2022/06/04 01:23:55;;;;;;;5.30;3.92;;;;;;;14.94;100.00;91409.72;5035019;28;20039;-65
2022/06/04 01:26:42;;;;;;;5.55;4.03;;;;;;;14.93;100.00;91407.38;5034897;28;20021;-65
2022/06/04 01:29:20;;;;;;;3.80;3.10;;;;;;;14.90;100.00;91391.97;5034854;28;20025;-65
2022/06/04 01:32:22;;;;;;;3.78;3.22;;;;;;;15.04;100.00;91405.13;5034732;28;20508;-65
2022/06/04 01:34:59;;;;;;;4.75;3.50;;;;;;;15.02;100.00;91407.34;4982323;28;20116;-66
2022/06/04 01:37:42;;;;;;;4.78;3.42;;;;;;;14.96;100.00;91402.16;5034686;28;20079;-66
2022/06/04 01:42:58;;;;;;;4.18;3.20;;;;;;;14.59;100.00;91384.22;5034898;28;20064;-66
2022/06/04 01:45:27;;;;;;;7.18;4.00;;;;;;;14.60;100.00;91397.28;5034601;28;20029;-67
2022/06/04 01:47:57;;;;;;;5.22;3.67;;;;;;;14.51;100.00;91399.19;5034593;28;20034;-65
2022/06/04 01:50:28;;;;;;;4.45;3.58;;;;;;;14.49;100.00;91382.66;5034432;28;20097;-65
2022/06/04 01:52:59;;;;;;;4.13;3.40;;;;;;;14.48;100.00;91378.41;5034414;28;20029;-66
2022/06/04 01:55:36;;;;;;;3.80;3.28;;;;;;;14.47;100.00;91386.78;5034385;28;20087;-65
2022/06/04 01:58:05;;;;;;;6.25;4.05;;;;;;;14.44;100.00;91377.50;5034306;28;20025;-66
2022/06/04 02:00:42;;;;;;;6.32;3.47;;;;;;;14.52;100.00;91378.59;5034158;28;20025;-65
2022/06/04 02:03:10;;;;;;;4.78;3.95;;;;;;;14.49;100.00;91366.59;5034237;28;20037;-65
2022/06/04 02:05:44;;;;;;;5.40;3.70;;;;;;;14.52;100.00;91368.66;5027754;28;20030;-65
2022/06/04 02:08:14;;;;;;;3.95;3.55;;;;;;;14.46;100.00;91369.16;5026273;28;20587;-65
2022/06/04 02:11:00;;;;;;;7.47;3.70;;;;;;;14.53;100.00;91386.31;5033928;28;20037;-65
2022/06/04 02:13:26;;;;;;;5.85;3.47;;;;;;;14.61;100.00;91388.13;5034033;28;20025;-66
2022/06/04 02:16:01;;;;;;;5.80;3.63;;;;;;;14.63;100.00;91398.53;5034058;28;20427;-66
2022/06/04 02:18:27;;;;;;;5.30;3.97;;;;;;;14.70;100.00;91400.72;5034016;28;20068;-66
2022/06/04 02:20:52;;;;;;;5.07;4.13;;;;;;;14.65;100.00;91388.28;5032297;28;20056;-66
2022/06/04 02:23:18;;;;;;;4.43;3.53;;;;;;;14.73;100.00;91400.06;5033906;28;20025;-64
2022/06/04 02:25:44;;;;;;;7.60;3.83;;;;;;;14.85;100.00;91408.22;5033842;28;20061;-66
2022/06/04 02:28:10;;;;;;;4.95;3.70;;;;;;;14.87;100.00;91400.66;5033759;28;20499;-66
2022/06/04 02:31:05;;;;;;;4.28;3.83;;;;;;;14.85;100.00;91416.25;5031854;28;20025;-66
2022/06/04 02:33:48;;;;;;;5.20;3.45;;;;;;;14.83;100.00;91413.09;5026297;28;20048;-66
2022/06/04 02:36:19;;;;;;;3.67;3.08;;;;;;;14.91;100.00;91423.00;5033654;28;20034;-65
2022/06/04 02:39:23;;;;;;;7.05;4.10;;;;;;;14.84;100.00;91418.16;5033559;28;20479;-66
2022/06/04 02:42:01;;;;;;;6.28;3.72;;;;;;;14.70;100.00;91427.50;5030729;28;20037;-66
2022/06/04 02:44:29;;;;;;;4.57;3.80;;;;;;;14.72;100.00;91430.66;5033560;28;20116;-67
2022/06/04 02:47:10;;;;;;;5.30;3.30;;;;;;;14.71;100.00;91431.75;5033508;28;20024;-67
2022/06/04 02:50:05;;;;;;;3.72;3.17;;;;;;;14.70;100.00;91435.53;5033456;28;20030;-66
2022/06/04 02:52:33;;;;;;;4.28;3.10;;;;;;;14.66;100.00;91441.50;5033382;28;20025;-66
2022/06/04 02:55:07;;;;;;;6.30;4.35;;;;;;;14.64;100.00;91438.38;5033356;28;20033;-65
2022/06/04 02:57:36;;;;;;;4.97;3.85;;;;;;;14.54;100.00;91448.66;5033305;28;20025;-65
2022/06/04 03:00:04;;;;;;;6.82;4.90;;;;;;;14.36;100.00;91453.25;5033183;28;20061;-66
2022/06/04 03:02:32;;;;;;;10.00;4.55;;;;;;;14.23;100.00;91446.19;5033091;28;20033;-66
2022/06/04 03:05:10;;;;;;;5.20;3.63;;;;;;;14.20;100.00;91460.16;5033065;28;20037;-66
2022/06/04 03:07:38;;;;;;;7.35;3.75;;;;;;;14.12;100.00;91463.66;5033039;28;20495;-66
2022/06/04 03:10:10;;;;;;;9.70;5.28;;;;;;;14.02;100.00;91462.88;5032743;28;20045;-66
2022/06/04 03:12:35;;;;;;;5.82;3.95;;;;;;;14.07;100.00;91460.06;5032954;28;20476;-66
2022/06/04 03:15:02;;;;;;;4.93;3.90;;;;;;;14.11;100.00;91457.53;5032859;28;20037;-66
2022/06/04 03:17:27;;;;;;;6.30;3.95;;;;;;;14.08;100.00;91450.91;5032928;28;20119;-67
2022/06/04 03:19:53;;;;;;;6.68;4.20;;;;;;;14.19;100.00;91445.22;5032780;28;20053;-66
2022/06/04 03:22:18;;;;;;;5.15;3.80;;;;;;;14.16;100.00;91440.50;5032819;28;20033;-66
2022/06/04 03:24:44;;;;;;;5.93;4.25;;;;;;;14.24;100.00;91437.03;5032796;28;20025;-66
2022/06/04 03:27:09;;;;;;;5.18;3.92;;;;;;;14.26;100.00;91440.97;5032614;28;20470;-66
2022/06/04 03:29:35;;;;;;;5.68;3.90;;;;;;;14.39;100.00;91431.97;5032625;28;20484;-66
2022/06/04 03:32:00;;;;;;;7.93;4.18;;;;;;;14.47;100.00;91427.72;5032170;28;20037;-66
2022/06/04 03:34:25;;;;;;;5.70;3.72;;;;;;;14.47;100.00;91419.69;5032514;28;20036;-66
2022/06/04 03:36:51;;;;;;;6.43;4.25;;;;;;;14.61;100.00;91414.91;5032494;28;20038;-67
2022/06/04 03:39:16;;;;;;;5.10;3.95;;;;;;;14.71;100.00;91408.44;5032381;28;20506;-66
2022/06/04 03:41:42;;;;;;;4.40;3.50;;;;;;;14.88;100.00;91407.56;5032340;28;20032;-66
2022/06/04 03:44:08;;;;;;;4.82;3.28;;;;;;;14.91;100.00;91407.69;5032392;28;20022;-67
2022/06/04 03:46:33;;;;;;;3.83;3.00;;;;;;;14.88;100.00;91407.56;5032320;28;20396;-66
2022/06/04 03:48:59;;;;;;;4.90;3.60;;;;;;;14.79;100.00;91404.13;5032278;28;20026;-66
2022/06/04 03:51:27;;;;;;;5.75;3.10;;;;;;;14.79;100.00;91409.50;5032125;28;20029;-66
2022/06/04 03:53:52;;;;;;;6.43;4.32;;;;;;;14.86;100.00;91399.84;5032102;28;20029;-66
2022/06/04 03:56:18;;;;;;;3.22;2.70;;;;;;;14.94;100.00;91401.69;5032140;28;20423;-66
2022/06/04 03:58:44;;;;;;;3.60;2.80;;;;;;;14.87;100.00;91395.28;5032127;28;20029;-66
2022/06/04 04:01:20;;;;;;;2.60;2.15;;;;;;;14.80;100.00;91395.78;5032046;28;20552;-66
2022/06/04 04:03:46;;;;;;;3.22;2.70;;;;;;;14.83;100.00;91387.13;5032208;28;20112;-66
2022/06/04 04:06:14;;;;;;;4.32;3.03;;;;;;;14.97;100.00;91394.91;5031868;28;20022;-66
2022/06/04 04:08:40;;;;;;;4.53;3.20;;;;;;;15.14;100.00;91394.03;5031663;28;20057;-66
2022/06/04 04:11:10;;;;;;;3.20;2.30;;;;;;;15.20;100.00;91390.84;5031705;28;20487;-67
2022/06/04 04:13:35;;;;;;;3.53;2.67;;;;;;;15.27;100.00;91388.41;5031865;28;20029;-66
2022/06/04 04:16:02;;;;;;;4.43;2.70;;;;;;;15.45;100.00;91391.75;5031698;28;20388;-66
2022/06/04 04:18:27;;;;;;;3.20;2.72;;;;;;;15.56;100.00;91390.28;5032044;28;20040;-66
2022/06/04 04:20:53;;;;;;;4.35;2.90;;;;;;;15.72;100.00;91393.19;5031477;28;20022;-66
2022/06/04 04:23:18;;;;;;;4.80;3.20;;;;;;;15.77;100.00;91382.25;5031715;28;20029;-66
2022/06/04 04:25:44;;;;;;;4.07;2.97;;;;;;;15.97;100.00;91393.31;5031598;28;20398;-66
2022/06/04 04:28:10;;;;;;;5.50;2.90;;;;;;;16.03;100.00;91405.38;5031668;28;20422;-66
2022/06/04 04:30:36;;;;;;;3.97;2.97;;;;;;;16.15;100.00;91402.75;5031488;28;20029;-66
2022/06/04 04:33:05;;;;;;;12.13;7.45;;;;;;;16.50;100.00;91416.63;5031521;28;20042;-66
2022/06/04 04:35:33;;;;;;;18.77;11.40;;;;;;;16.74;100.00;91416.69;5031395;28;20414;-66
2022/06/04 04:37:59;;;;;;;5.88;4.00;;;;;;;16.87;100.00;91420.16;5030498;28;20045;-65
2022/06/04 04:40:27;;;;;;;10.60;5.90;;;;;;;17.06;100.00;91422.34;5031145;28;20502;-65
2022/06/04 04:42:53;;;;;;;6.45;3.40;;;;;;;17.17;100.00;91428.03;5031212;28;20030;-65
2022/06/04 04:45:21;;;;;;;9.88;4.68;;;;;;;17.28;100.00;91437.22;5030638;28;20108;-65
2022/06/04 04:47:47;;;;;;;4.65;3.35;;;;;;;17.50;100.00;91444.81;5031312;28;20071;-65
2022/06/04 04:50:25;;;;;;;4.25;3.22;;;;;;;17.62;100.00;91452.88;5031176;28;20132;-65
2022/06/04 04:52:53;;;;;;;3.42;3.10;;;;;;;18.01;100.00;91450.63;5031299;28;20025;-65
2022/06/04 04:55:19;;;;;;;11.50;6.88;;;;;;;18.29;100.00;91455.22;5031212;28;20033;-65
2022/06/04 04:57:44;;;;;;;3.92;3.38;;;;;;;18.64;100.00;91460.84;5031386;28;20028;-65
2022/06/04 05:00:11;;;;;;;3.17;2.88;;;;;;;18.96;100.00;91462.47;5030970;28;20479;-65
2022/06/04 05:02:37;;;;;;;4.18;3.40;;;;;;;19.16;100.00;91468.75;5031109;28;20590;-65
2022/06/04 05:05:04;;;;;;;5.07;3.20;;;;;;;19.35;100.00;91476.91;5029844;28;20117;-65
2022/06/04 05:07:29;;;;;;;4.88;3.40;;;;;;;19.52;100.00;91469.59;5031100;28;20030;-65
2022/06/04 05:09:55;;;;;;;4.35;3.35;;;;;;;19.97;100.00;91469.13;5030795;28;20060;-65
2022/06/04 05:12:20;;;;;;;3.90;3.00;;;;;;;20.27;100.00;91474.78;5031037;28;20487;-65
2022/06/04 05:14:45;;;;;;;4.03;3.60;;;;;;;20.54;100.00;91473.84;5030906;28;20487;-65
2022/06/04 05:17:11;;;;;;;4.65;3.58;;;;;;;20.34;100.00;91477.63;5031271;28;20040;-66
2022/06/04 05:19:36;;;;;;;5.00;3.85;;;;;;;20.13;100.00;91477.97;5030866;28;20471;-66
2022/06/04 05:22:03;;;;;;;4.90;3.80;;;;;;;20.41;100.00;91477.81;5030887;28;20025;-66
2022/06/04 05:24:32;;;;;;;4.22;3.38;;;;;;;20.49;98.90;91476.03;5030999;28;20035;-65
2022/06/04 05:26:58;;;;;;;6.45;4.07;;;;;;;20.77;93.58;91476.59;5030892;28;20521;-66
2022/06/04 05:29:24;;;;;;;3.65;3.10;;;;;;;21.03;88.32;91467.81;5030940;28;20040;-67
2022/06/04 05:31:52;;;;;;;5.32;3.55;;;;;;;21.44;85.36;91457.31;5030848;28;20033;-66
2022/06/04 05:34:19;;;;;;;3.88;3.17;;;;;;;21.75;84.34;91457.03;5030975;28;20109;-67
2022/06/04 05:36:45;;;;;;;3.72;3.38;;;;;;;21.86;81.13;91464.53;5030844;28;20025;-66
2022/06/04 05:39:12;;;;;;;3.42;3.13;;;;;;;22.47;79.83;91466.19;5030711;28;20037;-66
2022/06/04 05:41:39;;;;;;;4.20;3.80;;;;;;;23.59;74.22;91471.31;5030793;28;20029;-66
2022/06/04 05:44:05;;;;;;;3.67;3.30;;;;;;;24.99;66.56;91472.97;5031051;28;20025;-65
2022/06/04 05:46:31;;;;;;;4.63;3.55;;;;;;;26.61;60.87;91469.97;5030828;28;20116;-65
2022/06/04 05:48:57;;;;;;;3.33;3.03;;;;;;;27.87;56.51;91477.97;5030723;28;20064;-65
2022/06/04 05:51:26;;;;;;;4.63;3.65;;;;;;;28.61;54.25;91486.75;5030648;28;20112;-65
2022/06/04 05:53:52;;;;;;;3.67;3.33;;;;;;;28.94;52.50;91485.25;5030925;28;20040;-67
2022/06/04 05:56:21;;;;;;;3.50;3.20;;;;;;;29.89;50.31;91479.69;5006904;28;20031;-66
2022/06/04 05:58:47;;;;;;;4.65;3.35;;;;;;;29.93;49.95;91483.16;5011724;28;20058;-67
2022/06/04 06:01:15;;;;;;;3.50;3.20;;;;;;;29.45;49.28;91492.44;5014262;28;20053;-66
2022/06/04 06:03:42;;;;;;;4.40;3.45;;;;;;;29.53;49.43;91484.94;5014385;28;20492;-66
2022/06/04 06:06:18;;;;;;;3.30;3.00;;;;;;;29.29;47.55;91484.03;5014314;28;20025;-68
2022/06/04 06:08:44;;;;;;;4.38;3.72;;;;;;;29.65;48.21;91491.81;5013908;28;20136;-66
2022/06/04 06:11:13;;;;;;;4.00;3.00;;;;;;;29.71;49.20;91492.91;5013796;28;20120;-67
2022/06/04 06:13:41;;;;;;;4.38;3.53;;;;;;;29.79;50.23;91488.84;5014319;28;20037;-67
2022/06/04 06:16:09;;;;;;;4.53;3.38;;;;;;;31.16;46.13;91484.22;5013810;28;20033;-68
2022/06/04 06:18:35;;;;;;;3.50;3.20;;;;;;;31.06;45.34;91487.94;5013992;28;20129;-68
2022/06/04 06:21:31;;;;;;;3.97;3.50;;;;;;;31.12;44.38;91486.25;5013727;28;20555;-68
2022/06/04 06:23:58;;;;;;;3.90;3.20;;;;;;;32.26;43.33;91494.06;4993719;28;20038;-69
2022/06/04 06:26:26;;;;;;;3.97;3.10;;;;;;;34.05;40.98;91475.06;4996200;28;20040;-69
2022/06/04 06:28:53;;;;;;;3.60;3.30;;;;;;;34.77;39.28;91484.63;5013736;28;20108;-67
2022/06/04 06:31:23;;;;;;;3.30;3.00;;;;;;;34.65;39.15;91483.41;5024348;28;20076;-66
2022/06/04 06:33:49;;;;;;;3.47;3.17;;;;;;;33.65;41.08;91469.94;5033608;28;20034;-65
2022/06/04 06:36:16;;;;;;;4.22;3.55;;;;;;;34.58;39.64;91469.84;5033670;28;20083;-65
2022/06/04 06:38:41;;;;;;;3.17;2.88;;;;;;;36.18;36.69;91468.88;5033054;28;20037;-67
2022/06/04 06:41:08;;;;;;;4.15;3.47;;;;;;;35.21;37.31;91457.06;5033282;28;20025;-66
2022/06/04 06:43:39;;;;;;;3.55;3.25;;;;;;;33.96;38.46;91446.59;5033382;28;20033;-65
2022/06/04 06:46:08;;;;;;;3.85;3.10;;;;;;;33.39;39.75;91456.53;5033146;28;20125;-66
2022/06/04 06:48:35;;;;;;;3.95;3.58;;;;;;;33.68;40.12;91462.00;5033207;28;20034;-67
2022/06/04 06:51:16;;;;;;;5.18;4.50;;;;;;;34.22;39.70;91464.66;5023424;28;20116;-70
2022/06/04 06:53:42;;;;;;;5.22;4.07;;;;;;;34.93;38.48;91462.38;4994576;28;20064;-67
2022/06/04 06:56:19;;;;;;;5.53;4.47;;;;;;;36.86;36.02;91470.50;5012600;28;20129;-66
2022/06/04 06:58:45;;;;;;;5.07;4.20;;;;;;;35.50;36.96;91467.88;5013089;28;20029;-67
2022/06/04 07:01:11;;;;;;;5.75;3.83;;;;;;;36.80;35.90;91466.78;5011995;28;20121;-69
2022/06/04 07:03:38;;;;;;;5.15;4.13;;;;;;;35.00;37.62;91453.81;5011750;28;20101;-66
2022/06/04 07:06:07;;;;;;;4.32;3.88;;;;;;;32.80;41.06;91454.94;5016911;28;20092;-67
2022/06/04 07:08:36;;;;;;;5.15;4.00;;;;;;;31.70;44.08;91450.09;5020838;28;20041;-67
2022/06/04 07:11:02;;;;;;;5.53;3.53;;;;;;;31.06;44.30;91449.47;5017272;28;20022;-66
2022/06/04 07:13:27;;;;;;;5.20;3.95;;;;;;;32.99;42.22;91451.31;5012363;28;20035;-66
2022/06/04 07:15:53;;;;;;;5.03;3.60;;;;;;;34.36;41.15;91444.13;5012772;28;20034;-66
2022/06/04 07:18:19;;;;;;;4.57;3.88;;;;;;;35.09;39.01;91447.59;5012859;28;20061;-65
2022/06/04 07:20:45;;;;;;;4.95;4.40;;;;;;;34.67;40.85;91436.75;5012396;28;20030;-65
2022/06/04 07:23:12;;;;;;;4.20;3.72;;;;;;;32.90;41.28;91443.66;5011667;28;20500;-66
2022/06/04 07:25:41;;;;;;;4.30;3.90;;;;;;;32.20;42.15;91443.47;5012679;28;20025;-65
2022/06/04 07:28:08;;;;;;;3.92;3.58;;;;;;;34.73;39.89;91439.75;5012366;28;20034;-67
2022/06/04 07:30:34;;;;;;;4.07;3.75;;;;;;;37.60;36.52;91434.44;5012378;28;20041;-67
2022/06/04 07:33:00;;;;;;;4.78;3.80;;;;;;;39.56;33.59;91434.03;5011826;28;20041;-68
2022/06/04 07:35:25;;;;;;;4.03;3.00;;;;;;;41.76;31.43;91439.50;5012506;28;20030;-68
2022/06/04 07:37:51;;;;;;;6.20;3.10;;;;;;;41.51;31.20;91438.22;5011841;28;20416;-69
2022/06/04 07:40:16;;;;;;;3.53;2.70;;;;;;;40.76;32.83;91431.41;5012026;28;20054;-66
2022/06/04 07:42:42;;;;;;;3.17;2.88;;;;;;;39.81;33.09;91427.88;5011980;28;20037;-67
2022/06/04 07:45:08;;;;;;;6.90;2.92;;;;;;;39.94;32.31;91421.25;5012431;28;20029;-66
2022/06/04 07:47:34;;;;;;;3.85;2.92;;;;;;;39.79;33.51;91422.03;5012086;28;20033;-66
2022/06/04 07:50:00;;;;;;;3.33;3.03;;;;;;;39.54;32.99;91414.25;5012226;28;20026;-66
2022/06/04 07:52:26;;;;;;;4.10;3.47;;;;;;;38.09;34.27;91411.91;5011706;28;20038;-66
2022/06/04 07:54:52;;;;;;;3.35;2.50;;;;;;;38.93;33.22;91422.13;5012193;28;20080;-66
2022/06/04 07:57:17;;;;;;;3.47;2.38;;;;;;;37.91;33.83;91423.09;5012283;28;20041;-66
2022/06/04 07:59:43;;;;;;;3.65;2.38;;;;;;;36.77;35.81;91416.97;5012056;28;20030;-66
2022/06/04 08:02:12;;;;;;;3.20;2.90;;;;;;;36.49;35.59;91413.44;5012287;28;20051;-66
2022/06/04 08:04:39;;;;;;;2.63;2.30;;;;;;;34.47;39.62;91411.41;5012270;28;20026;-66
2022/06/04 08:07:05;;;;;;;3.53;3.03;;;;;;;34.11;39.08;91418.06;5012197;28;20033;-65
2022/06/04 08:09:31;;;;;;;2.75;2.28;;;;;;;35.52;37.29;91421.16;5011971;28;20050;-66
2022/06/04 08:11:57;;;;;;;3.50;2.90;;;;;;;35.65;37.40;91421.84;5012043;28;20480;-66
2022/06/04 08:14:24;;;;;;;7.18;2.67;;;;;;;35.37;37.79;91416.16;5011941;28;20112;-66
2022/06/04 08:16:57;;;;;;;2.33;2.13;;;;;;;34.98;38.43;91417.53;5012119;28;20030;-66
2022/06/04 08:19:23;;;;;;;;;;;;;;;34.00;38.08;91412.13;5012263;28;20033;-66
2022/06/04 08:21:50;;;;;;;5.65;3.00;;;;;;;33.88;39.25;91410.13;5012281;28;19960;-66
2022/06/04 08:24:16;;;;;;;3.10;2.22;;;;;;;34.74;38.14;91413.66;5012260;28;20026;-66
2022/06/04 08:26:45;;;;;;;3.55;2.97;;;;;;;33.84;40.66;91415.75;5011902;28;20476;-66
2022/06/04 08:29:12;;;;;;;2.45;2.10;;;;;;;33.39;40.49;91404.13;5012104;28;20033;-65
2022/06/04 08:31:38;;;;;;;1.95;1.80;;;;;;;33.93;39.29;91404.06;5011701;28;20462;-65
2022/06/04 08:34:04;;;;;;;2.50;2.30;;;;;;;34.01;39.32;91399.09;5011842;28;20030;-64
2022/06/04 08:36:29;;;;;;;2.58;2.33;;;;;;;33.72;39.00;91407.44;5011772;28;20113;-66
2022/06/04 08:38:55;;;;;;;5.28;2.70;;;;;;;34.11;39.66;91398.75;5011553;28;20117;-65
2022/06/04 08:41:32;;;;;;;2.58;2.38;;;;;;;35.36;38.34;91388.94;5011498;28;20037;-65
2022/06/04 08:44:13;;;;;;;2.40;2.20;;;;;;;37.01;36.74;91387.44;5011469;28;20030;-67
2022/06/04 08:46:51;;;;;;;2.45;2.10;;;;;;;37.77;34.74;91380.09;5011626;28;20096;-65
2022/06/04 08:49:31;;;;;;;2.40;2.20;;;;;;;37.17;34.40;91387.13;5011770;28;20085;-65
2022/06/04 08:52:03;;;;;;;3.22;2.63;;;;;;;36.51;36.21;91384.00;5011421;28;20102;-65
2022/06/04 08:57:32;;;;;;;2.58;2.17;;;;;;;37.58;33.76;91373.81;5011736;28;20037;-66
2022/06/04 09:00:08;;;;;;;4.93;2.10;;;;;;;36.40;34.28;91375.38;5011296;28;20026;-66
2022/06/04 09:03:04;;;;;;;2.30;1.85;;;;;;;36.12;35.03;91365.41;5011460;28;20034;-66
2022/06/04 09:05:35;;;;;;;2.30;2.10;;;;;;;35.72;36.18;91366.97;5011389;28;20582;-66
2022/06/04 09:08:09;;;;;;;2.50;2.30;;;;;;;36.96;36.00;91357.56;5011090;28;20527;-66
2022/06/04 09:10:50;;;;;;;2.10;2.00;;;;;;;39.30;33.98;91349.50;5011332;28;20440;-66
2022/06/04 09:13:39;;;;;;;2.40;2.20;;;;;;;41.32;31.44;91355.97;5011307;28;20040;-66
2022/06/04 09:16:18;;;;;;;2.92;2.40;;;;;;;40.30;32.92;91362.28;5011580;28;20077;-67
2022/06/04 09:18:49;;;;;;;2.22;2.03;;;;;;;39.02;33.52;91352.50;5011305;28;20396;-66
2022/06/04 09:21:15;;;;;;;5.13;2.10;;;;;;;39.59;33.02;91348.72;5011315;28;20032;-66
2022/06/04 09:23:47;;;;;;;2.42;2.22;;;;;;;38.85;31.80;91345.84;5011243;28;20060;-66
2022/06/04 09:26:15;;;;;;;;;;;;;;;38.31;32.75;91354.06;5011895;28;20057;-67
2022/06/04 09:28:50;;;;;;;2.60;2.35;;;;;;;38.28;33.68;91346.69;5011414;28;19936;-66
2022/06/04 09:31:24;;;;;;;5.35;2.35;;;;;;;37.76;33.40;91334.91;5013650;28;20113;-66
2022/06/04 09:34:22;;;;;;;1.83;1.73;;;;;;;37.06;33.56;91339.66;5015008;28;20033;-66
2022/06/04 09:36:49;;;;;;;2.65;2.10;;;;;;;37.09;34.14;91340.75;5014939;28;20133;-66
2022/06/04 09:39:27;;;;;;;2.35;2.00;;;;;;;36.25;35.20;91339.13;5014983;28;20033;-67
2022/06/04 09:42:13;;;;;;;2.13;1.98;;;;;;;35.96;35.58;91338.75;5014947;28;20030;-66
2022/06/04 09:44:58;;;;;;;2.90;2.20;;;;;;;35.68;34.44;91340.66;5014974;28;20030;-66
2022/06/04 09:47:44;;;;;;;2.20;2.00;;;;;;;35.76;33.08;91333.59;5014257;28;20064;-66
2022/06/04 09:50:24;;;;;;;3.28;1.80;;;;;;;32.92;36.86;91328.25;5014592;28;20187;-65
2022/06/04 09:53:21;;;;;;;3.67;1.90;;;;;;;32.15;39.09;91327.16;5014669;28;20112;-66
2022/06/04 09:56:06;;;;;;;2.33;1.88;;;;;;;32.25;38.25;91327.31;4976608;28;20038;-65
2022/06/04 09:58:35;;;;;;;2.30;2.10;;;;;;;32.42;38.87;91320.56;5014805;28;20030;-66
2022/06/04 10:01:07;;;;;;;2.00;1.80;;;;;;;34.85;36.22;91331.09;5014328;28;20026;-66
2022/06/04 10:03:38;;;;;;;2.63;2.03;;;;;;;35.20;35.07;91317.97;5014577;28;20034;-66
2022/06/04 10:06:04;;;;;;;2.42;2.00;;;;;;;34.60;35.33;91315.41;5014533;28;20038;-66
2022/06/04 10:08:31;;;;;;;2.30;1.80;;;;;;;35.90;35.92;91319.22;5014357;28;20042;-66
2022/06/04 10:11:00;;;;;;;3.17;2.63;;;;;;;35.77;35.33;91321.31;5014357;28;20022;-66
2022/06/04 10:13:45;;;;;;;3.17;1.83;;;;;;;36.49;33.78;91314.41;5014334;28;20480;-65
2022/06/04 10:16:22;;;;;;;2.40;2.20;;;;;;;37.73;32.58;91323.97;5014598;28;20030;-66
2022/06/04 10:19:12;;;;;;;2.42;1.90;;;;;;;38.87;31.59;91329.44;5014516;28;20084;-65
2022/06/04 10:21:41;;;;;;;1.63;1.45;;;;;;;41.29;27.05;91330.56;5014410;28;20112;-66
2022/06/04 10:24:28;;;;;;;1.80;1.70;;;;;;;39.89;29.54;91327.19;5006039;28;20036;-66
2022/06/04 10:27:03;;;;;;;7.22;1.80;;;;;;;41.19;27.65;91329.19;5013932;28;20099;-65
2022/06/04 10:29:53;;;;;;;1.70;1.60;;;;;;;39.76;29.40;91324.69;5014304;28;20053;-66
2022/06/04 10:32:29;;;;;;;4.45;2.00;;;;;;;40.61;27.54;91328.25;5014092;28;20033;-66
2022/06/04 10:35:09;;;;;;;2.70;1.50;;;;;;;40.55;27.01;91330.19;5014135;28;20048;-66
2022/06/04 10:37:46;;;;;;;2.28;1.63;;;;;;;38.66;29.64;91320.19;5013837;28;20026;-66
2022/06/04 10:40:39;;;;;;;1.92;1.73;;;;;;;39.79;29.15;91318.19;5013952;28;20041;-66
2022/06/04 10:43:32;;;;;;;2.75;1.80;;;;;;;40.17;29.41;91313.69;5012615;28;20026;-64
2022/06/04 10:46:27;;;;;;;3.17;1.80;;;;;;;40.59;28.95;91318.84;5013736;28;20029;-64
2022/06/04 10:49:14;;;;;;;3.30;1.75;;;;;;;41.25;26.83;91320.88;4973200;28;20049;-66
2022/06/04 10:52:05;;;;;;;2.22;2.03;;;;;;;39.88;30.81;91304.13;5013699;28;20513;-67
2022/06/04 10:54:39;;;;;;;2.20;1.73;;;;;;;36.60;34.14;91311.94;5013686;28;20022;-66
2022/06/04 10:57:20;;;;;;;2.13;1.92;;;;;;;35.04;33.88;91307.91;5013745;28;20056;-66
2022/06/04 11:00:00;;;;;;;3.28;2.28;;;;;;;35.49;33.60;91301.06;5013366;28;20064;-66
2022/06/04 11:02:33;;;;;;;2.88;2.20;;;;;;;35.27;35.02;91300.31;5013463;28;20095;-66
2022/06/04 11:05:06;;;;;;;1.98;1.75;;;;;;;36.62;35.13;91300.41;5013456;28;20068;-66
2022/06/04 11:08:15;;;;;;;2.65;2.17;;;;;;;36.00;34.13;91293.09;5013665;28;20037;-66
2022/06/04 11:10:48;;;;;;;2.55;1.88;;;;;;;37.45;33.70;91281.63;4914692;29;20113;-66
2022/06/04 11:13:20;;;;;;;4.20;2.22;;;;;;;36.40;33.57;91289.47;4914761;29;20032;-66
2022/06/04 11:15:54;;;;;;;3.45;2.50;;;;;;;35.76;34.03;91289.31;4969999;28;20412;-66
2022/06/04 11:18:30;;;;;;;2.78;1.77;;;;;;;36.41;33.21;91285.44;5013431;28;20025;-66
2022/06/04 11:21:28;;;;;;;2.42;2.00;;;;;;;35.66;34.46;91282.19;5012929;28;20065;-66
2022/06/04 11:24:04;;;;;;;2.13;1.92;;;;;;;35.99;33.54;91279.72;5012543;28;20042;-66
2022/06/04 11:26:44;;;;;;;2.85;1.83;;;;;;;37.58;32.18;91273.88;5013052;28;20084;-66
2022/06/04 11:29:14;;;;;;;4.47;2.03;;;;;;;37.92;32.53;91286.50;5012795;28;20027;-67
2022/06/04 11:32:17;;;;;;;2.67;2.05;;;;;;;37.43;33.68;91279.31;5012963;28;20488;-67
2022/06/04 11:35:08;;;;;;;3.78;2.85;;;;;;;37.76;33.34;91268.25;5012789;28;20026;-67
2022/06/04 11:38:03;;;;;;;2.30;2.05;;;;;;;38.99;33.34;91280.34;5012553;28;20518;-67
2022/06/04 11:40:43;;;;;;;2.47;2.05;;;;;;;35.45;35.48;91278.28;5012773;28;20026;-66
2022/06/04 11:43:35;;;;;;;1.88;1.77;;;;;;;34.87;36.66;91267.06;5012665;28;20500;-66
2022/06/04 11:46:23;;;;;;;3.00;2.33;;;;;;;33.33;38.18;91268.75;5012655;28;20466;-66
2022/06/04 11:49:18;;;;;;;2.05;1.90;;;;;;;31.95;40.49;91271.44;5012497;28;20033;-66
2022/06/04 11:52:11;;;;;;;2.35;2.03;;;;;;;30.37;44.08;91269.94;4988891;28;20534;-66
2022/06/04 11:55:02;;;;;;;2.78;1.95;;;;;;;30.06;44.49;91261.91;4998993;28;20049;-66
2022/06/04 11:57:49;;;;;;;2.63;2.10;;;;;;;29.29;45.91;91267.50;5012398;28;20029;-66
2022/06/04 12:00:42;;;;;;;2.17;1.95;;;;;;;29.00;46.24;91269.13;5012259;28;20029;-66
2022/06/04 12:03:29;;;;;;;2.20;2.00;;;;;;;28.66;46.88;91270.00;5012356;28;20030;-66
2022/06/04 12:06:05;;;;;;;2.97;2.15;;;;;;;28.21;47.14;91280.31;5012214;28;20040;-66